sensor_id;sensor_type;location;lat;lon;timestamp;temperature;humidity
790;DHT22;378;48.844;9.156;2022-12-16T00:00:29;-1.80;99.90
790;DHT22;378;48.844;9.156;2022-12-16T00:02:58;-1.80;99.90
790;DHT22;378;48.844;9.156;2022-12-16T00:05:27;-2.00;99.90
790;DHT22;378;48.844;9.156;2022-12-16T00:07:54;-2.00;99.90
790;DHT22;378;48.844;9.156;2022-12-16T00:10:21;-1.90;99.90
790;DHT22;378;48.844;9.156;2022-12-16T00:12:48;-1.90;99.90
790;DHT22;378;48.844;9.156;2022-12-16T00:15:15;-1.90;99.90
790;DHT22;378;48.844;9.156;2022-12-16T00:17:41;-2.00;99.90
790;DHT22;378;48.844;9.156;2022-12-16T00:20:09;-2.00;99.90
790;DHT22;378;48.844;9.156;2022-12-16T00:22:38;-2.00;99.90
790;DHT22;378;48.844;9.156;2022-12-16T00:25:05;-2.00;99.90
790;DHT22;378;48.844;9.156;2022-12-16T00:27:32;-2.00;99.90
790;DHT22;378;48.844;9.156;2022-12-16T00:29:59;-2.00;99.90
790;DHT22;378;48.844;9.156;2022-12-16T00:32:26;-2.00;99.90
790;DHT22;378;48.844;9.156;2022-12-16T00:34:53;-1.90;99.90
790;DHT22;378;48.844;9.156;2022-12-16T00:37:20;-1.90;99.90
790;DHT22;378;48.844;9.156;2022-12-16T00:39:48;-2.00;99.90
790;DHT22;378;48.844;9.156;2022-12-16T00:42:15;-1.90;99.90
790;DHT22;378;48.844;9.156;2022-12-16T00:44:41;-2.00;99.90
790;DHT22;378;48.844;9.156;2022-12-16T00:47:08;-2.00;99.90
790;DHT22;378;48.844;9.156;2022-12-16T00:49:35;-2.00;99.90
790;DHT22;378;48.844;9.156;2022-12-16T00:52:02;-1.90;99.90
790;DHT22;378;48.844;9.156;2022-12-16T00:54:29;-2.00;99.90
790;DHT22;378;48.844;9.156;2022-12-16T00:56:57;-2.00;99.90
790;DHT22;378;48.844;9.156;2022-12-16T00:59:24;-1.90;99.90
790;DHT22;378;48.844;9.156;2022-12-16T01:01:51;-1.90;99.90
790;DHT22;378;48.844;9.156;2022-12-16T01:04:18;-1.90;99.90
790;DHT22;378;48.844;9.156;2022-12-16T01:06:45;-1.90;99.90
790;DHT22;378;48.844;9.156;2022-12-16T01:09:12;-1.90;99.90
790;DHT22;378;48.844;9.156;2022-12-16T01:11:39;-1.90;99.90
790;DHT22;378;48.844;9.156;2022-12-16T01:14:07;-1.90;99.90
790;DHT22;378;48.844;9.156;2022-12-16T01:16:34;-2.00;99.90
790;DHT22;378;48.844;9.156;2022-12-16T01:19:01;-1.90;99.90
790;DHT22;378;48.844;9.156;2022-12-16T01:21:28;-2.00;99.90
790;DHT22;378;48.844;9.156;2022-12-16T01:23:54;-2.00;99.90
790;DHT22;378;48.844;9.156;2022-12-16T01:26:21;-2.00;99.90
790;DHT22;378;48.844;9.156;2022-12-16T01:28:49;-2.00;99.90
790;DHT22;378;48.844;9.156;2022-12-16T01:31:17;-2.00;99.90
790;DHT22;378;48.844;9.156;2022-12-16T01:33:45;-2.10;99.90
790;DHT22;378;48.844;9.156;2022-12-16T01:36:12;-2.10;99.90
790;DHT22;378;48.844;9.156;2022-12-16T01:38:41;-2.00;99.90
790;DHT22;378;48.844;9.156;2022-12-16T01:41:09;-2.00;99.90
790;DHT22;378;48.844;9.156;2022-12-16T01:43:38;-2.00;99.90
790;DHT22;378;48.844;9.156;2022-12-16T01:46:08;-2.00;99.90
790;DHT22;378;48.844;9.156;2022-12-16T01:48:44;-2.00;99.90
790;DHT22;378;48.844;9.156;2022-12-16T01:51:16;-2.10;99.90
790;DHT22;378;48.844;9.156;2022-12-16T01:53:45;-2.10;99.90
790;DHT22;378;48.844;9.156;2022-12-16T01:56:14;-2.10;99.90
790;DHT22;378;48.844;9.156;2022-12-16T01:58:44;-2.10;99.90
790;DHT22;378;48.844;9.156;2022-12-16T02:01:12;-2.10;99.90
790;DHT22;378;48.844;9.156;2022-12-16T02:03:40;-2.10;99.90
790;DHT22;378;48.844;9.156;2022-12-16T02:06:07;-2.10;99.90
790;DHT22;378;48.844;9.156;2022-12-16T02:08:34;-2.10;99.90
790;DHT22;378;48.844;9.156;2022-12-16T02:11:21;-2.00;99.90
790;DHT22;378;48.844;9.156;2022-12-16T02:16:53;-2.10;99.90
790;DHT22;378;48.844;9.156;2022-12-16T02:19:45;-2.00;99.90
790;DHT22;378;48.844;9.156;2022-12-16T02:22:26;-2.10;99.90
790;DHT22;378;48.844;9.156;2022-12-16T02:25:23;-2.00;99.90
790;DHT22;378;48.844;9.156;2022-12-16T02:28:01;-2.00;99.90
790;DHT22;378;48.844;9.156;2022-12-16T02:30:38;-2.00;99.90
790;DHT22;378;48.844;9.156;2022-12-16T02:33:23;-2.00;99.90
790;DHT22;378;48.844;9.156;2022-12-16T02:35:57;-2.00;99.90
790;DHT22;378;48.844;9.156;2022-12-16T02:38:33;-2.00;99.90
790;DHT22;378;48.844;9.156;2022-12-16T02:41:02;-2.00;99.90
790;DHT22;378;48.844;9.156;2022-12-16T02:43:43;-1.90;99.90
790;DHT22;378;48.844;9.156;2022-12-16T02:46:16;-2.00;99.90
790;DHT22;378;48.844;9.156;2022-12-16T02:48:43;-2.00;99.90
790;DHT22;378;48.844;9.156;2022-12-16T02:51:10;-2.00;99.90
790;DHT22;378;48.844;9.156;2022-12-16T02:53:38;-2.00;99.90
790;DHT22;378;48.844;9.156;2022-12-16T02:56:16;-2.00;99.90
790;DHT22;378;48.844;9.156;2022-12-16T02:58:52;-2.00;99.90
790;DHT22;378;48.844;9.156;2022-12-16T03:01:30;-2.00;99.90
790;DHT22;378;48.844;9.156;2022-12-16T03:04:02;-1.90;99.90
790;DHT22;378;48.844;9.156;2022-12-16T03:06:32;-1.90;99.90
790;DHT22;378;48.844;9.156;2022-12-16T03:09:05;-1.90;99.90
790;DHT22;378;48.844;9.156;2022-12-16T03:11:34;-1.90;99.90
790;DHT22;378;48.844;9.156;2022-12-16T03:14:03;-1.90;99.90
790;DHT22;378;48.844;9.156;2022-12-16T03:16:33;-1.90;99.90
790;DHT22;378;48.844;9.156;2022-12-16T03:19:02;-1.90;99.90
790;DHT22;378;48.844;9.156;2022-12-16T03:21:35;-1.90;99.90
790;DHT22;378;48.844;9.156;2022-12-16T03:24:06;-1.90;99.90
790;DHT22;378;48.844;9.156;2022-12-16T03:26:38;-1.90;99.90
790;DHT22;378;48.844;9.156;2022-12-16T03:29:09;-1.90;99.90
790;DHT22;378;48.844;9.156;2022-12-16T03:31:42;-1.90;99.90
790;DHT22;378;48.844;9.156;2022-12-16T03:34:13;-1.90;99.90
790;DHT22;378;48.844;9.156;2022-12-16T03:36:43;-1.90;99.90
790;DHT22;378;48.844;9.156;2022-12-16T03:39:12;-1.90;99.90
790;DHT22;378;48.844;9.156;2022-12-16T03:41:41;-2.00;99.90
790;DHT22;378;48.844;9.156;2022-12-16T03:44:09;-2.10;99.90
790;DHT22;378;48.844;9.156;2022-12-16T03:46:38;-2.00;99.90
790;DHT22;378;48.844;9.156;2022-12-16T03:49:05;-2.00;99.90
790;DHT22;378;48.844;9.156;2022-12-16T03:51:32;-1.90;99.90
790;DHT22;378;48.844;9.156;2022-12-16T03:53:59;-1.90;99.90
790;DHT22;378;48.844;9.156;2022-12-16T03:56:26;-2.00;99.90
790;DHT22;378;48.844;9.156;2022-12-16T03:58:53;-2.00;99.90
790;DHT22;378;48.844;9.156;2022-12-16T04:01:19;-2.00;99.90
790;DHT22;378;48.844;9.156;2022-12-16T04:03:49;-2.10;99.90
790;DHT22;378;48.844;9.156;2022-12-16T04:06:15;-2.10;99.90
790;DHT22;378;48.844;9.156;2022-12-16T04:08:43;-2.10;99.90
790;DHT22;378;48.844;9.156;2022-12-16T04:11:10;-2.10;99.90
790;DHT22;378;48.844;9.156;2022-12-16T04:13:54;-2.10;99.90
790;DHT22;378;48.844;9.156;2022-12-16T04:16:38;-2.10;99.90
790;DHT22;378;48.844;9.156;2022-12-16T04:19:27;-2.10;99.90
790;DHT22;378;48.844;9.156;2022-12-16T04:22:16;-2.10;99.90
790;DHT22;378;48.844;9.156;2022-12-16T04:25:05;-2.10;99.90
790;DHT22;378;48.844;9.156;2022-12-16T04:27:32;-2.10;99.90
790;DHT22;378;48.844;9.156;2022-12-16T04:29:59;-2.10;99.90
790;DHT22;378;48.844;9.156;2022-12-16T04:32:44;-2.10;99.90
790;DHT22;378;48.844;9.156;2022-12-16T04:35:31;-2.10;99.90
790;DHT22;378;48.844;9.156;2022-12-16T04:38:15;-2.10;99.90
790;DHT22;378;48.844;9.156;2022-12-16T04:41:00;-2.10;99.90
790;DHT22;378;48.844;9.156;2022-12-16T04:43:44;-2.20;99.90
790;DHT22;378;48.844;9.156;2022-12-16T04:46:28;-2.20;99.90
790;DHT22;378;48.844;9.156;2022-12-16T04:49:13;-2.10;99.90
790;DHT22;378;48.844;9.156;2022-12-16T04:51:59;-2.10;99.90
790;DHT22;378;48.844;9.156;2022-12-16T04:54:43;-2.10;99.90
790;DHT22;378;48.844;9.156;2022-12-16T04:57:27;-2.10;99.90
790;DHT22;378;48.844;9.156;2022-12-16T05:00:12;-2.10;99.90
790;DHT22;378;48.844;9.156;2022-12-16T05:02:57;-2.10;99.90
790;DHT22;378;48.844;9.156;2022-12-16T05:05:41;-2.10;99.90
790;DHT22;378;48.844;9.156;2022-12-16T05:08:27;-2.10;99.90
790;DHT22;378;48.844;9.156;2022-12-16T05:11:12;-2.10;99.90
790;DHT22;378;48.844;9.156;2022-12-16T05:14:10;-2.10;99.90
790;DHT22;378;48.844;9.156;2022-12-16T05:16:55;-2.00;99.90
790;DHT22;378;48.844;9.156;2022-12-16T05:19:39;-2.00;99.90
790;DHT22;378;48.844;9.156;2022-12-16T05:22:24;-2.00;99.90
790;DHT22;378;48.844;9.156;2022-12-16T05:25:10;-2.00;99.90
790;DHT22;378;48.844;9.156;2022-12-16T05:27:54;-2.00;99.90
790;DHT22;378;48.844;9.156;2022-12-16T05:30:39;-2.10;99.90
790;DHT22;378;48.844;9.156;2022-12-16T05:33:23;-2.10;99.90
790;DHT22;378;48.844;9.156;2022-12-16T05:36:07;-2.10;99.90
790;DHT22;378;48.844;9.156;2022-12-16T05:38:52;-2.10;99.90
790;DHT22;378;48.844;9.156;2022-12-16T05:41:38;-2.10;99.90
790;DHT22;378;48.844;9.156;2022-12-16T05:44:23;-2.10;99.90
790;DHT22;378;48.844;9.156;2022-12-16T05:47:08;-2.00;99.90
790;DHT22;378;48.844;9.156;2022-12-16T05:49:52;-2.00;99.90
790;DHT22;378;48.844;9.156;2022-12-16T05:52:37;-2.00;99.90
790;DHT22;378;48.844;9.156;2022-12-16T05:55:21;-2.00;99.90
790;DHT22;378;48.844;9.156;2022-12-16T05:58:07;-2.10;99.90
790;DHT22;378;48.844;9.156;2022-12-16T06:01:06;-2.10;99.90
790;DHT22;378;48.844;9.156;2022-12-16T06:03:51;-2.10;99.90
790;DHT22;378;48.844;9.156;2022-12-16T06:06:36;-2.10;99.90
790;DHT22;378;48.844;9.156;2022-12-16T06:09:20;-2.00;99.90
790;DHT22;378;48.844;9.156;2022-12-16T06:12:05;-2.00;99.90
790;DHT22;378;48.844;9.156;2022-12-16T06:14:53;-2.00;99.90
790;DHT22;378;48.844;9.156;2022-12-16T06:17:40;-2.00;99.90
790;DHT22;378;48.844;9.156;2022-12-16T06:20:25;-2.00;99.90
790;DHT22;378;48.844;9.156;2022-12-16T06:23:09;-2.00;99.90
790;DHT22;378;48.844;9.156;2022-12-16T06:25:53;-2.00;99.90
790;DHT22;378;48.844;9.156;2022-12-16T06:28:37;-2.00;99.90
790;DHT22;378;48.844;9.156;2022-12-16T06:31:24;-2.00;99.90
790;DHT22;378;48.844;9.156;2022-12-16T06:34:08;-2.00;99.90
790;DHT22;378;48.844;9.156;2022-12-16T06:36:52;-1.90;99.90
790;DHT22;378;48.844;9.156;2022-12-16T06:39:37;-1.90;99.90
790;DHT22;378;48.844;9.156;2022-12-16T06:42:21;-1.90;99.90
790;DHT22;378;48.844;9.156;2022-12-16T06:45:06;-1.90;99.90
790;DHT22;378;48.844;9.156;2022-12-16T06:47:52;-1.90;99.90
790;DHT22;378;48.844;9.156;2022-12-16T06:50:33;-1.90;99.90
790;DHT22;378;48.844;9.156;2022-12-16T06:53:17;-1.90;99.90
790;DHT22;378;48.844;9.156;2022-12-16T06:56:02;-1.90;99.90
790;DHT22;378;48.844;9.156;2022-12-16T06:58:46;-1.90;99.90
790;DHT22;378;48.844;9.156;2022-12-16T07:01:30;-2.00;99.90
790;DHT22;378;48.844;9.156;2022-12-16T07:04:16;-2.00;99.90
790;DHT22;378;48.844;9.156;2022-12-16T07:07:01;-2.00;99.90
790;DHT22;378;48.844;9.156;2022-12-16T07:09:45;-2.00;99.90
790;DHT22;378;48.844;9.156;2022-12-16T07:12:29;-2.00;99.90
790;DHT22;378;48.844;9.156;2022-12-16T07:15:14;-2.00;99.90
790;DHT22;378;48.844;9.156;2022-12-16T07:17:58;-2.00;99.90
790;DHT22;378;48.844;9.156;2022-12-16T07:20:44;-2.00;99.90
790;DHT22;378;48.844;9.156;2022-12-16T07:23:28;-2.00;99.90
790;DHT22;378;48.844;9.156;2022-12-16T07:26:13;-2.00;99.90
790;DHT22;378;48.844;9.156;2022-12-16T07:28:57;-2.00;99.90
790;DHT22;378;48.844;9.156;2022-12-16T07:31:42;-2.10;99.90
790;DHT22;378;48.844;9.156;2022-12-16T07:34:26;-2.00;99.90
790;DHT22;378;48.844;9.156;2022-12-16T07:37:11;-2.00;99.90
790;DHT22;378;48.844;9.156;2022-12-16T07:39:56;-2.10;99.90
790;DHT22;378;48.844;9.156;2022-12-16T07:42:40;-2.00;99.90
790;DHT22;378;48.844;9.156;2022-12-16T07:45:24;-2.00;99.90
790;DHT22;378;48.844;9.156;2022-12-16T07:48:09;-2.00;99.90
790;DHT22;378;48.844;9.156;2022-12-16T07:50:53;-1.90;99.90
790;DHT22;378;48.844;9.156;2022-12-16T07:53:39;-1.90;99.90
790;DHT22;378;48.844;9.156;2022-12-16T07:56:23;-1.90;99.90
790;DHT22;378;48.844;9.156;2022-12-16T07:59:08;-1.80;99.90
790;DHT22;378;48.844;9.156;2022-12-16T08:01:53;-1.80;99.90
790;DHT22;378;48.844;9.156;2022-12-16T08:04:37;-1.80;99.90
790;DHT22;378;48.844;9.156;2022-12-16T08:07:22;-1.70;99.90
790;DHT22;378;48.844;9.156;2022-12-16T08:10:08;-1.70;99.90
790;DHT22;378;48.844;9.156;2022-12-16T08:12:58;-1.70;99.90
790;DHT22;378;48.844;9.156;2022-12-16T08:15:42;-1.70;99.90
790;DHT22;378;48.844;9.156;2022-12-16T08:18:27;-1.60;99.90
790;DHT22;378;48.844;9.156;2022-12-16T08:21:14;-1.60;99.90
790;DHT22;378;48.844;9.156;2022-12-16T08:23:59;-1.50;99.90
790;DHT22;378;48.844;9.156;2022-12-16T08:26:44;-1.50;99.90
790;DHT22;378;48.844;9.156;2022-12-16T08:29:29;-1.40;99.90
790;DHT22;378;48.844;9.156;2022-12-16T08:32:14;-1.40;99.90
790;DHT22;378;48.844;9.156;2022-12-16T08:34:59;-1.50;99.90
790;DHT22;378;48.844;9.156;2022-12-16T08:37:44;-1.50;99.90
790;DHT22;378;48.844;9.156;2022-12-16T08:40:28;-1.50;99.90
790;DHT22;378;48.844;9.156;2022-12-16T08:43:14;-1.50;99.90
790;DHT22;378;48.844;9.156;2022-12-16T08:45:58;-1.50;99.90
790;DHT22;378;48.844;9.156;2022-12-16T08:48:43;-1.50;99.90
790;DHT22;378;48.844;9.156;2022-12-16T08:51:27;-1.40;99.90
790;DHT22;378;48.844;9.156;2022-12-16T08:54:12;-1.30;99.90
790;DHT22;378;48.844;9.156;2022-12-16T08:56:56;-1.40;99.90
790;DHT22;378;48.844;9.156;2022-12-16T08:59:42;-1.40;99.90
790;DHT22;378;48.844;9.156;2022-12-16T09:02:26;-1.30;99.90
790;DHT22;378;48.844;9.156;2022-12-16T09:05:11;-1.30;99.90
790;DHT22;378;48.844;9.156;2022-12-16T09:07:57;-1.30;99.90
790;DHT22;378;48.844;9.156;2022-12-16T09:10:42;-1.30;99.90
790;DHT22;378;48.844;9.156;2022-12-16T09:13:26;-1.10;99.90
790;DHT22;378;48.844;9.156;2022-12-16T09:16:12;-1.00;99.90
790;DHT22;378;48.844;9.156;2022-12-16T09:18:56;-0.80;99.90
790;DHT22;378;48.844;9.156;2022-12-16T09:21:41;-0.60;99.90
790;DHT22;378;48.844;9.156;2022-12-16T09:24:25;-0.40;99.90
790;DHT22;378;48.844;9.156;2022-12-16T09:27:10;-0.20;99.90
790;DHT22;378;48.844;9.156;2022-12-16T09:29:54;0.00;99.90
790;DHT22;378;48.844;9.156;2022-12-16T09:32:41;0.00;99.90
790;DHT22;378;48.844;9.156;2022-12-16T09:35:26;0.00;99.90
790;DHT22;378;48.844;9.156;2022-12-16T09:38:10;0.10;99.90
790;DHT22;378;48.844;9.156;2022-12-16T09:40:54;0.10;99.90
790;DHT22;378;48.844;9.156;2022-12-16T09:43:48;0.00;99.90
790;DHT22;378;48.844;9.156;2022-12-16T09:46:47;0.00;99.90
790;DHT22;378;48.844;9.156;2022-12-16T09:49:41;-0.10;99.90
790;DHT22;378;48.844;9.156;2022-12-16T09:52:27;-0.10;99.90
790;DHT22;378;48.844;9.156;2022-12-16T09:55:21;0.00;99.90
790;DHT22;378;48.844;9.156;2022-12-16T09:58:08;0.00;99.90
790;DHT22;378;48.844;9.156;2022-12-16T10:00:53;0.00;99.90
790;DHT22;378;48.844;9.156;2022-12-16T10:03:38;-0.10;99.90
790;DHT22;378;48.844;9.156;2022-12-16T10:06:39;0.00;99.90
790;DHT22;378;48.844;9.156;2022-12-16T10:09:28;0.10;99.90
790;DHT22;378;48.844;9.156;2022-12-16T10:12:21;0.20;99.90
790;DHT22;378;48.844;9.156;2022-12-16T10:15:17;0.20;99.90
790;DHT22;378;48.844;9.156;2022-12-16T10:18:08;0.40;99.90
790;DHT22;378;48.844;9.156;2022-12-16T10:20:57;0.20;99.90
790;DHT22;378;48.844;9.156;2022-12-16T10:23:49;0.20;99.90
790;DHT22;378;48.844;9.156;2022-12-16T10:26:44;0.30;99.90
790;DHT22;378;48.844;9.156;2022-12-16T10:29:36;0.50;99.90
790;DHT22;378;48.844;9.156;2022-12-16T10:32:28;0.50;99.90
790;DHT22;378;48.844;9.156;2022-12-16T10:35:20;0.50;99.90
790;DHT22;378;48.844;9.156;2022-12-16T10:38:08;0.40;99.90
790;DHT22;378;48.844;9.156;2022-12-16T10:40:59;0.40;99.90
790;DHT22;378;48.844;9.156;2022-12-16T10:43:45;0.40;99.90
790;DHT22;378;48.844;9.156;2022-12-16T10:46:33;0.40;99.90
790;DHT22;378;48.844;9.156;2022-12-16T10:49:18;0.40;99.90
790;DHT22;378;48.844;9.156;2022-12-16T10:52:03;0.30;99.90
790;DHT22;378;48.844;9.156;2022-12-16T10:54:54;0.60;99.90
790;DHT22;378;48.844;9.156;2022-12-16T10:57:51;0.80;99.90
790;DHT22;378;48.844;9.156;2022-12-16T11:00:42;1.10;99.90
790;DHT22;378;48.844;9.156;2022-12-16T11:03:29;1.20;99.90
790;DHT22;378;48.844;9.156;2022-12-16T11:06:18;1.10;99.90
790;DHT22;378;48.844;9.156;2022-12-16T11:09:21;1.10;99.90
790;DHT22;378;48.844;9.156;2022-12-16T11:12:22;0.80;99.90
790;DHT22;378;48.844;9.156;2022-12-16T11:15:23;0.70;99.90
790;DHT22;378;48.844;9.156;2022-12-16T11:18:10;0.80;99.90
790;DHT22;378;48.844;9.156;2022-12-16T11:21:13;0.90;99.90
790;DHT22;378;48.844;9.156;2022-12-16T11:24:11;1.00;99.90
790;DHT22;378;48.844;9.156;2022-12-16T11:26:58;1.00;99.90
790;DHT22;378;48.844;9.156;2022-12-16T11:29:49;1.00;99.90
790;DHT22;378;48.844;9.156;2022-12-16T11:32:36;1.00;99.90
790;DHT22;378;48.844;9.156;2022-12-16T11:35:24;0.90;99.90
790;DHT22;378;48.844;9.156;2022-12-16T11:38:18;0.90;99.90
790;DHT22;378;48.844;9.156;2022-12-16T11:41:04;1.00;99.90
790;DHT22;378;48.844;9.156;2022-12-16T11:43:51;1.10;99.90
790;DHT22;378;48.844;9.156;2022-12-16T11:46:35;1.30;99.90
790;DHT22;378;48.844;9.156;2022-12-16T11:49:26;1.50;99.90
790;DHT22;378;48.844;9.156;2022-12-16T11:52:14;1.80;99.90
790;DHT22;378;48.844;9.156;2022-12-16T11:55:17;2.00;99.90
790;DHT22;378;48.844;9.156;2022-12-16T11:58:11;2.00;99.90
790;DHT22;378;48.844;9.156;2022-12-16T12:01:03;2.00;99.90
790;DHT22;378;48.844;9.156;2022-12-16T12:03:50;1.90;99.90
790;DHT22;378;48.844;9.156;2022-12-16T12:06:48;2.20;99.90
790;DHT22;378;48.844;9.156;2022-12-16T12:09:39;2.10;99.90
790;DHT22;378;48.844;9.156;2022-12-16T12:12:30;2.10;99.90
790;DHT22;378;48.844;9.156;2022-12-16T12:15:19;2.00;99.90
790;DHT22;378;48.844;9.156;2022-12-16T12:18:17;2.00;99.90
790;DHT22;378;48.844;9.156;2022-12-16T12:21:07;1.70;99.90
790;DHT22;378;48.844;9.156;2022-12-16T12:23:59;1.70;99.90
790;DHT22;378;48.844;9.156;2022-12-16T12:26:50;1.50;99.90
790;DHT22;378;48.844;9.156;2022-12-16T12:29:47;1.30;99.90
790;DHT22;378;48.844;9.156;2022-12-16T12:32:47;1.10;99.90
790;DHT22;378;48.844;9.156;2022-12-16T12:35:46;1.10;99.90
790;DHT22;378;48.844;9.156;2022-12-16T12:38:38;1.00;99.90
790;DHT22;378;48.844;9.156;2022-12-16T12:41:27;1.00;99.90
790;DHT22;378;48.844;9.156;2022-12-16T12:44:18;1.00;99.90
790;DHT22;378;48.844;9.156;2022-12-16T12:47:08;0.80;99.90
790;DHT22;378;48.844;9.156;2022-12-16T12:49:58;0.90;99.90
790;DHT22;378;48.844;9.156;2022-12-16T12:53:07;0.90;99.90
790;DHT22;378;48.844;9.156;2022-12-16T12:56:01;0.90;99.90
790;DHT22;378;48.844;9.156;2022-12-16T12:58:50;1.00;99.90
790;DHT22;378;48.844;9.156;2022-12-16T13:01:38;1.00;99.90
790;DHT22;378;48.844;9.156;2022-12-16T13:04:24;0.90;99.90
790;DHT22;378;48.844;9.156;2022-12-16T13:07:09;1.00;99.90
790;DHT22;378;48.844;9.156;2022-12-16T13:10:12;0.90;99.90
790;DHT22;378;48.844;9.156;2022-12-16T13:13:32;0.90;99.90
790;DHT22;378;48.844;9.156;2022-12-16T13:19:57;1.00;99.90
790;DHT22;378;48.844;9.156;2022-12-16T13:22:43;0.90;99.90
790;DHT22;378;48.844;9.156;2022-12-16T13:25:41;0.90;99.90
790;DHT22;378;48.844;9.156;2022-12-16T13:28:28;0.90;99.90
790;DHT22;378;48.844;9.156;2022-12-16T13:31:14;0.90;99.90
790;DHT22;378;48.844;9.156;2022-12-16T13:34:03;0.90;99.90
790;DHT22;378;48.844;9.156;2022-12-16T13:36:56;0.70;99.90
790;DHT22;378;48.844;9.156;2022-12-16T13:39:43;0.50;99.90
790;DHT22;378;48.844;9.156;2022-12-16T13:42:32;0.30;99.90
790;DHT22;378;48.844;9.156;2022-12-16T13:45:31;0.30;99.90
790;DHT22;378;48.844;9.156;2022-12-16T13:48:34;0.10;99.90
790;DHT22;378;48.844;9.156;2022-12-16T13:54:59;0.00;99.90
790;DHT22;378;48.844;9.156;2022-12-16T13:57:45;0.00;99.90
790;DHT22;378;48.844;9.156;2022-12-16T14:00:35;-0.10;99.90
790;DHT22;378;48.844;9.156;2022-12-16T14:03:24;-0.10;99.90
790;DHT22;378;48.844;9.156;2022-12-16T14:06:16;-0.10;99.90
790;DHT22;378;48.844;9.156;2022-12-16T14:09:03;-0.10;99.90
790;DHT22;378;48.844;9.156;2022-12-16T14:11:54;-0.10;99.90
790;DHT22;378;48.844;9.156;2022-12-16T14:14:46;-0.20;99.90
790;DHT22;378;48.844;9.156;2022-12-16T14:17:35;-0.30;99.90
790;DHT22;378;48.844;9.156;2022-12-16T14:20:26;-0.30;99.90
790;DHT22;378;48.844;9.156;2022-12-16T14:23:24;-0.30;99.90
790;DHT22;378;48.844;9.156;2022-12-16T14:26:12;-0.40;99.90
790;DHT22;378;48.844;9.156;2022-12-16T14:29:00;-0.40;99.90
790;DHT22;378;48.844;9.156;2022-12-16T14:31:45;-0.40;99.90
790;DHT22;378;48.844;9.156;2022-12-16T14:34:32;-0.40;99.90
790;DHT22;378;48.844;9.156;2022-12-16T14:37:19;-0.50;99.90
790;DHT22;378;48.844;9.156;2022-12-16T14:40:18;-0.50;99.90
790;DHT22;378;48.844;9.156;2022-12-16T14:43:02;-0.60;99.90
790;DHT22;378;48.844;9.156;2022-12-16T14:45:49;-0.60;99.90
790;DHT22;378;48.844;9.156;2022-12-16T14:48:35;-0.70;99.90
790;DHT22;378;48.844;9.156;2022-12-16T14:51:25;-0.80;99.90
790;DHT22;378;48.844;9.156;2022-12-16T14:54:23;-0.90;99.90
790;DHT22;378;48.844;9.156;2022-12-16T14:57:12;-0.90;99.90
790;DHT22;378;48.844;9.156;2022-12-16T15:00:13;-1.10;99.90
790;DHT22;378;48.844;9.156;2022-12-16T15:03:03;-1.10;99.90
790;DHT22;378;48.844;9.156;2022-12-16T15:05:49;-1.20;99.90
790;DHT22;378;48.844;9.156;2022-12-16T15:08:45;-1.20;99.90
790;DHT22;378;48.844;9.156;2022-12-16T15:11:31;-1.30;99.90
790;DHT22;378;48.844;9.156;2022-12-16T15:14:18;-1.30;99.90
790;DHT22;378;48.844;9.156;2022-12-16T15:17:20;-1.40;99.90
790;DHT22;378;48.844;9.156;2022-12-16T15:20:15;-1.40;99.90
790;DHT22;378;48.844;9.156;2022-12-16T15:23:00;-1.50;99.90
790;DHT22;378;48.844;9.156;2022-12-16T15:25:48;-1.40;99.90
790;DHT22;378;48.844;9.156;2022-12-16T15:28:38;-1.50;99.90
790;DHT22;378;48.844;9.156;2022-12-16T15:31:24;-1.50;99.90
790;DHT22;378;48.844;9.156;2022-12-16T15:34:23;-1.50;99.90
790;DHT22;378;48.844;9.156;2022-12-16T15:37:19;-1.50;99.90
790;DHT22;378;48.844;9.156;2022-12-16T15:40:13;-1.60;99.90
790;DHT22;378;48.844;9.156;2022-12-16T15:43:01;-1.60;99.90
790;DHT22;378;48.844;9.156;2022-12-16T15:45:47;-1.60;99.90
790;DHT22;378;48.844;9.156;2022-12-16T15:48:34;-1.70;99.90
790;DHT22;378;48.844;9.156;2022-12-16T15:51:21;-1.70;99.90
790;DHT22;378;48.844;9.156;2022-12-16T15:54:14;-1.80;99.90
790;DHT22;378;48.844;9.156;2022-12-16T15:56:58;-1.80;99.90
790;DHT22;378;48.844;9.156;2022-12-16T15:59:55;-1.70;99.90
790;DHT22;378;48.844;9.156;2022-12-16T16:02:46;-1.80;99.90
790;DHT22;378;48.844;9.156;2022-12-16T16:05:30;-1.70;99.90
790;DHT22;378;48.844;9.156;2022-12-16T16:08:14;-1.80;99.90
790;DHT22;378;48.844;9.156;2022-12-16T16:11:00;-1.80;99.90
790;DHT22;378;48.844;9.156;2022-12-16T16:13:44;-1.70;99.90
790;DHT22;378;48.844;9.156;2022-12-16T16:16:29;-1.70;99.90
790;DHT22;378;48.844;9.156;2022-12-16T16:19:19;-1.80;99.90
790;DHT22;378;48.844;9.156;2022-12-16T16:22:08;-1.80;99.90
790;DHT22;378;48.844;9.156;2022-12-16T16:24:52;-1.90;99.90
790;DHT22;378;48.844;9.156;2022-12-16T16:27:38;-1.90;99.90
790;DHT22;378;48.844;9.156;2022-12-16T16:30:22;-1.90;99.90
790;DHT22;378;48.844;9.156;2022-12-16T16:33:07;-1.90;99.90
790;DHT22;378;48.844;9.156;2022-12-16T16:35:51;-1.80;99.90
790;DHT22;378;48.844;9.156;2022-12-16T16:38:36;-1.80;99.90
790;DHT22;378;48.844;9.156;2022-12-16T16:41:20;-1.80;99.90
790;DHT22;378;48.844;9.156;2022-12-16T16:44:06;-1.90;99.90
790;DHT22;378;48.844;9.156;2022-12-16T16:46:50;-1.90;99.90
790;DHT22;378;48.844;9.156;2022-12-16T16:49:49;-1.90;99.90
790;DHT22;378;48.844;9.156;2022-12-16T16:52:33;-1.90;99.90
790;DHT22;378;48.844;9.156;2022-12-16T16:55:20;-1.90;99.90
790;DHT22;378;48.844;9.156;2022-12-16T16:58:05;-2.00;99.90
790;DHT22;378;48.844;9.156;2022-12-16T17:00:51;-2.10;99.90
790;DHT22;378;48.844;9.156;2022-12-16T17:03:35;-2.10;99.90
790;DHT22;378;48.844;9.156;2022-12-16T17:06:20;-2.10;99.90
790;DHT22;378;48.844;9.156;2022-12-16T17:09:04;-2.10;99.90
790;DHT22;378;48.844;9.156;2022-12-16T17:11:49;-2.10;99.90
790;DHT22;378;48.844;9.156;2022-12-16T17:14:33;-2.10;99.90
790;DHT22;378;48.844;9.156;2022-12-16T17:17:19;-2.10;99.90
790;DHT22;378;48.844;9.156;2022-12-16T17:20:04;-2.10;99.90
790;DHT22;378;48.844;9.156;2022-12-16T17:22:48;-2.10;99.90
790;DHT22;378;48.844;9.156;2022-12-16T17:25:33;-2.20;99.90
790;DHT22;378;48.844;9.156;2022-12-16T17:28:18;-2.20;99.90
790;DHT22;378;48.844;9.156;2022-12-16T17:31:03;-2.20;99.90
790;DHT22;378;48.844;9.156;2022-12-16T17:33:48;-2.30;99.90
790;DHT22;378;48.844;9.156;2022-12-16T17:36:34;-2.30;99.90
790;DHT22;378;48.844;9.156;2022-12-16T17:39:18;-2.30;99.90
790;DHT22;378;48.844;9.156;2022-12-16T17:42:02;-2.30;99.90
790;DHT22;378;48.844;9.156;2022-12-16T17:44:58;-2.20;99.90
790;DHT22;378;48.844;9.156;2022-12-16T17:47:42;-2.20;99.90
790;DHT22;378;48.844;9.156;2022-12-16T17:50:28;-2.20;99.90
790;DHT22;378;48.844;9.156;2022-12-16T17:53:12;-2.20;99.90
790;DHT22;378;48.844;9.156;2022-12-16T17:56:05;-2.20;99.90
790;DHT22;378;48.844;9.156;2022-12-16T17:58:46;-2.20;99.90
790;DHT22;378;48.844;9.156;2022-12-16T18:01:30;-2.20;99.90
790;DHT22;378;48.844;9.156;2022-12-16T18:04:14;-2.20;99.90
790;DHT22;378;48.844;9.156;2022-12-16T18:07:00;-2.20;99.90
790;DHT22;378;48.844;9.156;2022-12-16T18:09:44;-2.20;99.90
790;DHT22;378;48.844;9.156;2022-12-16T18:12:29;-2.20;99.90
790;DHT22;378;48.844;9.156;2022-12-16T18:15:15;-2.20;99.90
790;DHT22;378;48.844;9.156;2022-12-16T18:18:10;-2.20;99.90
790;DHT22;378;48.844;9.156;2022-12-16T18:21:09;-2.20;99.90
790;DHT22;378;48.844;9.156;2022-12-16T18:23:55;-2.20;99.90
790;DHT22;378;48.844;9.156;2022-12-16T18:26:40;-2.20;99.90
790;DHT22;378;48.844;9.156;2022-12-16T18:29:24;-2.30;99.90
790;DHT22;378;48.844;9.156;2022-12-16T18:32:09;-2.20;99.90
790;DHT22;378;48.844;9.156;2022-12-16T18:35:07;-2.20;99.90
790;DHT22;378;48.844;9.156;2022-12-16T18:37:52;-2.20;99.90